Terminal Aerodrome Forecast
Issued by NWS

Home | Current Version | Previous Version | Graphics & Text | Print | Product List | Glossary On
Versions: 1 2 3 4 5 6 7 8 9 10 11 12 13 14 15 16 17
654
FTUS45 KGGW 050532
TAFSDY
TAF
KSDY 050532Z 0506/0606 32009KT 5SM -SHSN BKN015 OVC035
     FM050900 33013KT P6SM OVC020
     FM051200 27007KT P6SM BKN100
     FM051800 24010KT P6SM SCT250
     FM060300 24005KT P6SM SCT250
      AMD LTD TO CLD VIS AND WIND=

USA.gov is the U.S. government's official web portal to all federal, state and local government web resources and services.